Delphi Ranger — C6XJ5 — position and weather

sailwx.info

Track history (hours):
 
Tides and Currents Weather Stations Pressure Air Temp Water Temp Dewpoint Dewpoint Depression Visibility Wind Speed Wind Dir Waves Ship Positions

Delphi Ranger

Last reported at 2017-Oct-03 06:03 UTC. Time now 2017-Nov-22 21:57 UTC.
Position N 27°43' W 013°56'.
Warning: this ship's position is 50 days out of date.

Length 190 m; draft 9.5 m.

Type: Cargo ship. MMSI: 311011500.

Date/timePositionNaut miles runAvg speedWind from/ knotsBaromVisibWave heightAir tempDewpointWater temp
2017-Oct-03 06:03N 27°43' W 013°56'114.2
2017-Oct-03 06:00N 27°44' W 013°56'714.2
2017-Oct-03 05:30N 27°49' W 013°51'713.8
2017-Oct-03 04:58N 27°55' W 013°46'4214.2
2017-Oct-03 02:01N 28°29' W 013°18'213.7
2017-Oct-03 01:53N 28°31' W 013°17'12713.9
2017-Oct-02 16:43N 30°14' W 011°52'713.9
2017-Oct-02 16:14N 30°19' W 011°47'12014.0
2017-Oct-02 07:40N 31°57' W 010°25'25414.0
2017-Oct-01 13:33N 35°06' W 007°02'214.2
2017-Oct-01 13:26N 35°07' W 007°01'613.9
2017-Oct-01 13:00N 35°11' W 006°55'7413.7
2017-Oct-01 07:34N 35°57' W 005°44'514.5
2017-Oct-01 07:14N 35°58' W 005°38'414.1
2017-Oct-01 06:58N 35°59' W 005°33'714.3
2017-Oct-01 06:30N 36°01' W 005°26'612.1
2017-Oct-01 06:00N 36°07' W 005°23'1 1.4
2017-Oct-01 05:08N 36°08' W 005°22'0 0.1
2017-Oct-01 04:44N 36°08' W 005°22'0 0.1
2017-Oct-01 03:02N 36°08' W 005°22'0 0.0
2017-Oct-01 02:59N 36°08' W 005°22'222 8.3
2017-Sep-30 00:24N 37°16' W 000°59'614.6
2017-Sep-30 00:00N 37°20' W 000°53'714.8
2017-Sep-29 23:30N 37°25' W 000°47'714.5
2017-Sep-29 23:00N 37°30' W 000°40'714.5
2017-Sep-29 22:30N 37°35' W 000°33'1414.5
2017-Sep-29 21:33N 37°48' W 000°29'114.7
2017-Sep-29 21:30N 37°49' W 000°28'714.3
2017-Sep-29 21:00N 37°56' W 000°26'714.3
2017-Sep-29 20:30N 38°03' W 000°24'  
2017-Sep-24 08:30N 38°01' W 000°14'23 9.8
2017-Sep-24 06:08N 37°38' W 000°15'110.1
2017-Sep-24 06:00N 37°37' W 000°17'510.6
2017-Sep-24 05:30N 37°33' W 000°21'2410.5
2017-Sep-24 03:15N 37°17' W 000°42'310.3
2017-Sep-24 02:58N 37°14' W 000°45'910.2
2017-Sep-24 02:06N 37°08' W 000°53'  
Track history (hours):
 
Tides and Currents Weather Stations Pressure Air Temp Water Temp Dewpoint Dewpoint Depression Visibility Wind Speed Wind Dir Waves Ship Positions

Delphi Ranger

Last reported at 2017-Oct-03 06:03 UTC. Time now 2017-Nov-22 21:57 UTC.
Position N 27°43' W 013°56'.
Warning: this ship's position is 50 days out of date.

Length 190 m; draft 9.5 m.

Type: Cargo ship. MMSI: 311011500.

Date/timePositionNaut miles runAvg speedWind from/ knotsBaromVisibWave heightAir tempDewpointWater temp
2017-Oct-03 06:03N 27°43' W 013°56'114.2
2017-Oct-03 06:00N 27°44' W 013°56'714.2
2017-Oct-03 05:30N 27°49' W 013°51'713.8
2017-Oct-03 04:58N 27°55' W 013°46'4214.2
2017-Oct-03 02:01N 28°29' W 013°18'213.7
2017-Oct-03 01:53N 28°31' W 013°17'12713.9
2017-Oct-02 16:43N 30°14' W 011°52'713.9
2017-Oct-02 16:14N 30°19' W 011°47'12014.0
2017-Oct-02 07:40N 31°57' W 010°25'25414.0
2017-Oct-01 13:33N 35°06' W 007°02'214.2
2017-Oct-01 13:26N 35°07' W 007°01'613.9
2017-Oct-01 13:00N 35°11' W 006°55'7413.7
2017-Oct-01 07:34N 35°57' W 005°44'514.5
2017-Oct-01 07:14N 35°58' W 005°38'414.1
2017-Oct-01 06:58N 35°59' W 005°33'714.3
2017-Oct-01 06:30N 36°01' W 005°26'612.1
2017-Oct-01 06:00N 36°07' W 005°23'1 1.4
2017-Oct-01 05:08N 36°08' W 005°22'0 0.1
2017-Oct-01 04:44N 36°08' W 005°22'0 0.1
2017-Oct-01 03:02N 36°08' W 005°22'0 0.0
2017-Oct-01 02:59N 36°08' W 005°22'222 8.3
2017-Sep-30 00:24N 37°16' W 000°59'614.6
2017-Sep-30 00:00N 37°20' W 000°53'714.8
2017-Sep-29 23:30N 37°25' W 000°47'714.5
2017-Sep-29 23:00N 37°30' W 000°40'714.5
2017-Sep-29 22:30N 37°35' W 000°33'1414.5
2017-Sep-29 21:33N 37°48' W 000°29'114.7
2017-Sep-29 21:30N 37°49' W 000°28'714.3
2017-Sep-29 21:00N 37°56' W 000°26'714.3
2017-Sep-29 20:30N 38°03' W 000°24'  
2017-Sep-24 08:30N 38°01' W 000°14'23 9.8
2017-Sep-24 06:08N 37°38' W 000°15'110.1
2017-Sep-24 06:00N 37°37' W 000°17'510.6
2017-Sep-24 05:30N 37°33' W 000°21'2410.5
2017-Sep-24 03:15N 37°17' W 000°42'310.3
2017-Sep-24 02:58N 37°14' W 000°45'910.2
2017-Sep-24 02:06N 37°08' W 000°53'  

Dump ship's entire track history